Time;durP1;ratioP1;P1;durP2;ratioP2;P2;SDS_P1;SDS_P2;PMS_P1;PMS_P2;Temp;Humidity;BMP_temperature;BMP_pressure;BME280_temperature;BME280_humidity;BME280_pressure;Samples;Min_cycle;Max_cycle;Signal;HPM_P1;HPM_P2
2022/01/24 00:01:15;;;;;;;2.00;0.65;;;22.10;99.90;;;;;;5032409;28;20026;-66
2022/01/24 00:03:43;;;;;;;4.57;0.47;;;22.10;99.90;;;;;;5032287;28;20032;-66
2022/01/24 00:06:14;;;;;;;5.45;1.02;;;22.10;99.90;;;;;;5025000;28;20036;-65
2022/01/24 00:08:41;;;;;;;2.78;0.70;;;22.20;99.90;;;;;;5029316;28;20112;-66
2022/01/24 00:11:14;;;;;;;4.32;0.50;;;22.20;99.90;;;;;;5029581;28;20433;-66
2022/01/24 00:16:57;;;;;;;3.60;0.50;;;22.30;99.90;;;;;;5012327;28;20057;-66
2022/01/24 00:27:14;;;;;;;3.80;0.25;;;22.50;99.90;;;;;;5032453;28;20032;-66
2022/01/24 00:29:41;;;;;;;0.80;0.10;;;22.50;99.90;;;;;;5030686;28;20026;-65
2022/01/24 00:32:09;;;;;;;2.35;0.28;;;22.60;99.90;;;;;;5032231;28;20033;-66
2022/01/24 00:34:36;;;;;;;1.35;0.35;;;22.70;99.90;;;;;;5027606;28;20022;-66
2022/01/24 00:37:04;;;;;;;1.65;0.20;;;22.90;99.90;;;;;;5032011;28;20061;-66
2022/01/24 00:39:31;;;;;;;3.97;0.20;;;22.90;99.90;;;;;;5030455;28;20064;-66
2022/01/24 00:42:22;;;;;;;3.97;0.68;;;23.10;99.90;;;;;;5029968;28;20026;-66
2022/01/24 00:48:10;;;;;;;2.53;0.45;;;23.20;99.90;;;;;;5031348;28;20115;-66
2022/01/24 00:56:06;;;;;;;2.97;0.20;;;23.20;99.90;;;;;;5030082;28;20033;-66
2022/01/24 00:58:34;;;;;;;1.40;0.30;;;23.20;99.90;;;;;;5031767;28;20017;-66
2022/01/24 01:01:01;;;;;;;3.08;0.20;;;23.20;99.90;;;;;;5030587;28;20482;-66
2022/01/24 01:03:29;;;;;;;1.10;0.30;;;23.20;99.90;;;;;;5031803;28;20022;-66
2022/01/24 01:06:04;;;;;;;2.53;0.32;;;23.30;99.90;;;;;;5030556;28;20084;-66
2022/01/24 01:19:47;;;;;;;2.97;0.30;;;23.30;99.90;;;;;;5022413;28;20045;-64
2022/01/24 01:22:15;;;;;;;1.80;0.15;;;23.30;99.90;;;;;;5014888;28;20026;-64
2022/01/24 01:24:51;;;;;;;1.13;0.10;;;23.30;99.90;;;;;;5032784;28;20038;-65
2022/01/24 01:27:24;;;;;;;1.90;0.20;;;23.30;99.90;;;;;;5031217;28;20104;-65
2022/01/24 01:29:58;;;;;;;3.35;0.40;;;23.50;99.90;;;;;;5030871;28;20036;-65
2022/01/24 01:38:22;;;;;;;2.08;0.28;;;23.80;99.90;;;;;;5034994;28;20064;-65
2022/01/24 01:54:54;;;;;;;3.50;0.30;;;23.50;99.90;;;;;;5019155;28;20037;-66
2022/01/24 01:57:19;;;;;;;1.55;0.32;;;23.50;99.90;;;;;;5022815;28;20038;-66
2022/01/24 01:59:47;;;;;;;2.80;0.60;;;23.60;99.90;;;;;;5020243;28;20037;-66
2022/01/24 02:02:15;;;;;;;5.28;0.50;;;23.70;99.90;;;;;;5033401;28;20025;-66
2022/01/24 02:04:42;;;;;;;2.60;0.40;;;23.80;99.90;;;;;;5028870;28;20565;-66
2022/01/24 02:07:14;;;;;;;4.68;0.38;;;23.80;99.90;;;;;;5032946;28;20072;-66
2022/01/24 02:09:45;;;;;;;4.15;0.50;;;24.10;99.90;;;;;;5030985;28;20030;-66
2022/01/24 02:12:14;;;;;;;3.35;0.47;;;24.20;99.90;;;;;;5014364;28;20018;-66
2022/01/24 02:14:49;;;;;;;3.50;0.43;;;24.30;99.90;;;;;;5021048;28;20032;-66
2022/01/24 02:17:24;;;;;;;3.65;0.55;;;24.30;99.90;;;;;;5033443;28;21663;-66
2022/01/24 02:25:06;;;;;;;1.40;0.20;;;24.70;99.90;;;;;;5032371;28;20084;-66
2022/01/24 02:27:44;;;;;;;2.50;0.43;;;25.30;99.90;;;;;;5034194;28;20402;-66
2022/01/24 02:30:48;;;;;;;3.22;0.43;;;25.40;99.90;;;;;;5032944;28;20025;-66
2022/01/24 02:33:14;;;;;;;4.75;0.77;;;25.20;99.90;;;;;;5033542;28;20029;-66
2022/01/24 02:35:41;;;;;;;1.85;0.30;;;25.60;99.90;;;;;;5032303;28;20029;-66
2022/01/24 02:38:20;;;;;;;1.00;0.10;;;25.40;99.90;;;;;;5033773;28;20022;-66
2022/01/24 02:46:01;;;;;;;2.63;0.40;;;25.20;99.90;;;;;;5032048;28;20417;-66
2022/01/24 02:49:11;;;;;;;4.68;0.70;;;25.90;99.90;;;;;;5024917;28;20083;-66
2022/01/24 02:51:47;;;;;;;1.73;0.20;;;26.40;99.90;;;;;;5025010;28;20418;-66
2022/01/24 02:54:33;;;;;;;1.80;0.10;;;26.40;99.90;;;;;;5031073;28;20048;-67
2022/01/24 02:57:01;;;;;;;3.92;0.75;;;26.40;99.90;;;;;;5033522;28;20018;-66
2022/01/24 02:59:49;;;;;;;2.67;0.28;;;26.40;99.90;;;;;;5029154;28;20026;-67
2022/01/24 03:02:16;;;;;;;2.25;0.30;;;26.40;99.90;;;;;;5032024;28;20075;-66
2022/01/24 03:04:43;;;;;;;2.63;0.20;;;26.30;99.90;;;;;;5026959;28;20117;-68
2022/01/24 03:07:11;;;;;;;2.25;0.20;;;26.30;99.90;;;;;;5033202;28;20026;-70
2022/01/24 03:09:38;;;;;;;2.70;0.40;;;26.00;99.90;;;;;;5032168;28;20374;-68
2022/01/24 03:12:13;;;;;;;2.08;0.40;;;26.10;99.90;;;;;;5033267;28;20032;-67
2022/01/24 03:14:40;;;;;;;1.45;0.20;;;26.10;99.90;;;;;;5025014;28;20105;-68
2022/01/24 03:17:10;;;;;;;1.77;0.20;;;26.10;99.90;;;;;;5027325;28;20032;-68
2022/01/24 03:19:37;;;;;;;4.55;0.50;;;26.40;99.90;;;;;;5029686;28;20037;-67
2022/01/24 03:22:06;;;;;;;2.33;0.55;;;26.60;99.90;;;;;;5027736;28;20032;-67
2022/01/24 03:24:34;;;;;;;3.80;0.60;;;26.40;99.90;;;;;;5020359;28;20026;-67
2022/01/24 03:27:01;;;;;;;2.42;0.30;;;26.40;99.90;;;;;;5032333;28;20030;-67
2022/01/24 03:29:28;;;;;;;3.45;0.85;;;26.40;99.90;;;;;;5027937;28;20026;-67
2022/01/24 03:31:55;;;;;;;4.75;0.50;;;26.70;99.90;;;;;;5031778;28;20021;-67
2022/01/24 03:34:23;;;;;;;3.95;0.68;;;26.50;99.90;;;;;;5028155;28;20543;-67
2022/01/24 03:36:50;;;;;;;2.50;0.60;;;26.50;99.90;;;;;;5032416;28;20091;-67
2022/01/24 03:39:17;;;;;;;3.75;0.40;;;26.60;99.90;;;;;;5030940;28;20444;-65
2022/01/24 03:41:44;;;;;;;4.57;0.68;;;26.30;99.90;;;;;;5028059;28;20025;-65
2022/01/24 03:44:14;;;;;;;0.80;0.17;;;25.70;99.90;;;;;;5030864;28;20100;-65
2022/01/24 03:46:59;;;;;;;5.45;0.73;;;25.40;99.90;;;;;;5032234;28;20025;-66
2022/01/24 03:49:47;;;;;;;5.80;1.10;;;25.20;99.90;;;;;;5017340;28;20489;-66
2022/01/24 03:52:19;;;;;;;5.75;0.82;;;24.90;99.90;;;;;;5031305;28;20398;-66
2022/01/24 03:54:50;;;;;;;5.22;0.40;;;24.70;99.90;;;;;;5029311;28;20443;-66
2022/01/24 03:57:20;;;;;;;1.17;0.30;;;24.50;99.90;;;;;;5031015;28;20056;-66
2022/01/24 03:59:47;;;;;;;1.52;0.30;;;24.50;99.90;;;;;;5027283;28;20033;-66
2022/01/24 04:02:16;;;;;;;2.80;0.60;;;24.50;99.90;;;;;;5032606;28;20036;-66
2022/01/24 04:04:44;;;;;;;3.50;0.47;;;24.50;99.90;;;;;;5031004;28;20363;-66
2022/01/24 04:07:11;;;;;;;6.82;0.93;;;24.40;99.90;;;;;;5032742;28;20021;-66
2022/01/24 04:09:41;;;;;;;2.22;0.30;;;24.60;99.90;;;;;;5031218;28;20040;-66
2022/01/24 04:12:10;;;;;;;1.80;0.43;;;24.80;99.90;;;;;;5031059;28;20486;-66
2022/01/24 04:22:19;;;;;;;0.88;0.20;;;25.10;99.90;;;;;;5032530;28;20022;-66
2022/01/24 04:24:47;;;;;;;4.03;0.30;;;25.00;99.90;;;;;;5028508;28;20033;-66
2022/01/24 04:27:16;;;;;;;1.35;0.30;;;24.90;99.90;;;;;;5031429;28;20083;-66
2022/01/24 04:29:43;;;;;;;3.40;0.40;;;24.70;99.90;;;;;;5025113;28;20053;-67
2022/01/24 04:32:11;;;;;;;2.45;0.43;;;24.80;99.90;;;;;;5012710;28;20033;-66
2022/01/24 04:34:39;;;;;;;3.85;0.47;;;24.70;99.90;;;;;;5019198;28;20033;-66
2022/01/24 04:37:06;;;;;;;3.53;0.40;;;24.80;99.90;;;;;;5033037;28;20083;-66
2022/01/24 04:39:33;;;;;;;2.92;0.50;;;24.80;99.90;;;;;;5031113;28;20033;-66
2022/01/24 04:42:09;;;;;;;2.65;0.38;;;24.80;99.90;;;;;;5029787;28;20086;-66
2022/01/24 04:44:55;;;;;;;5.03;0.38;;;24.70;99.90;;;;;;5031080;28;20035;-66
2022/01/24 04:47:33;;;;;;;5.13;0.82;;;24.70;99.90;;;;;;5031012;28;20052;-66
2022/01/24 04:52:57;;;;;;;4.70;0.95;;;24.90;99.90;;;;;;5030932;28;20501;-66
2022/01/24 04:55:24;;;;;;;5.75;0.50;;;24.60;99.90;;;;;;5034373;28;20052;-66
2022/01/24 04:57:52;;;;;;;5.93;0.40;;;24.50;99.90;;;;;;5034794;28;20363;-66
2022/01/24 05:00:19;;;;;;;2.60;0.43;;;24.70;99.90;;;;;;5034247;28;20117;-66
2022/01/24 05:02:46;;;;;;;5.22;0.50;;;24.70;99.90;;;;;;5035759;28;20025;-66
2022/01/24 05:05:18;;;;;;;3.85;0.57;;;24.50;99.90;;;;;;5034068;28;20044;-66
2022/01/24 05:07:46;;;;;;;4.88;0.47;;;24.60;99.90;;;;;;5034801;28;20425;-66
2022/01/24 05:10:28;;;;;;;5.63;0.40;;;24.60;99.90;;;;;;5034282;28;20478;-66
2022/01/24 05:23:56;;;;;;;5.05;0.90;;;24.30;99.90;;;;;;5033645;28;20032;-67
2022/01/24 05:26:23;;;;;;;3.97;0.40;;;24.20;99.90;;;;;;5015053;28;20022;-67
2022/01/24 05:28:50;;;;;;;5.32;0.77;;;24.00;99.90;;;;;;5020267;28;20029;-65
2022/01/24 05:31:17;;;;;;;4.05;0.40;;;23.80;99.90;;;;;;5027158;28;20139;-65
2022/01/24 05:33:45;;;;;;;5.78;1.23;;;23.80;99.90;;;;;;5034995;28;20474;-65
2022/01/24 05:36:12;;;;;;;2.67;0.45;;;23.80;99.90;;;;;;5034232;28;20490;-64
2022/01/24 05:38:39;;;;;;;4.35;0.40;;;23.80;99.90;;;;;;5035001;28;20029;-65
2022/01/24 05:41:07;;;;;;;5.32;0.65;;;24.00;99.90;;;;;;5030431;28;20113;-66
2022/01/24 05:43:35;;;;;;;3.88;0.30;;;24.20;99.90;;;;;;5033809;28;20541;-66
2022/01/24 05:46:03;;;;;;;3.58;0.60;;;24.40;99.90;;;;;;5029278;28;20474;-66
2022/01/24 05:48:30;;;;;;;3.60;0.60;;;24.40;99.90;;;;;;5033902;28;20075;-66
2022/01/24 05:50:57;;;;;;;4.68;0.68;;;24.30;99.90;;;;;;5028727;28;20022;-66
2022/01/24 05:53:24;;;;;;;2.92;0.43;;;24.20;99.90;;;;;;5020761;28;20128;-66
2022/01/24 05:55:53;;;;;;;4.85;0.70;;;24.30;99.90;;;;;;5032143;28;20087;-65
2022/01/24 05:58:21;;;;;;;4.90;0.82;;;24.10;99.90;;;;;;5014211;28;20071;-65
2022/01/24 06:00:48;;;;;;;5.25;0.60;;;23.90;99.90;;;;;;5030080;28;20033;-65
2022/01/24 06:03:15;;;;;;;2.95;0.55;;;23.80;99.90;;;;;;5033223;28;20028;-65
2022/01/24 06:05:43;;;;;;;8.25;1.27;;;23.70;99.90;;;;;;5032959;28;20398;-66
2022/01/24 06:08:10;;;;;;;4.28;0.68;;;23.70;99.90;;;;;;5034680;28;20093;-66
2022/01/24 06:10:39;;;;;;;5.40;0.90;;;23.60;99.90;;;;;;5020948;28;20500;-66
2022/01/24 06:13:06;;;;;;;6.18;1.10;;;23.50;99.90;;;;;;5014408;28;20029;-66
2022/01/24 06:15:34;;;;;;;4.75;0.98;;;23.50;99.90;;;;;;5027930;28;20060;-66
2022/01/24 06:18:05;;;;;;;6.10;1.10;;;23.70;99.90;;;;;;5034272;28;20481;-66
2022/01/24 06:20:32;;;;;;;3.80;0.55;;;23.70;99.90;;;;;;5031945;28;20436;-65
2022/01/24 06:22:59;;;;;;;3.05;0.55;;;23.60;99.90;;;;;;5016970;28;20021;-66
2022/01/24 06:25:29;;;;;;;6.57;0.73;;;23.40;99.90;;;;;;5022036;28;20029;-66
2022/01/24 06:27:56;;;;;;;4.13;0.75;;;23.40;99.90;;;;;;5014117;28;20084;-66
2022/01/24 06:30:24;;;;;;;6.63;0.73;;;23.50;99.90;;;;;;5024160;28;20049;-65
2022/01/24 06:32:51;;;;;;;3.28;0.70;;;23.60;99.90;;;;;;5034059;28;20030;-66
2022/01/24 06:35:18;;;;;;;3.65;0.60;;;23.50;99.90;;;;;;5032101;28;20036;-65
2022/01/24 06:37:45;;;;;;;3.55;0.70;;;23.60;99.90;;;;;;5018298;28;20022;-66
2022/01/24 06:40:13;;;;;;;8.43;1.30;;;23.60;99.90;;;;;;5022398;28;20041;-66
2022/01/24 06:42:41;;;;;;;3.67;0.60;;;23.50;99.90;;;;;;5026130;28;20030;-66
2022/01/24 06:45:09;;;;;;;5.18;0.77;;;23.40;99.90;;;;;;5031636;28;20065;-66
2022/01/24 06:47:38;;;;;;;4.80;0.45;;;23.30;99.90;;;;;;5033680;28;20041;-66
2022/01/24 06:50:06;;;;;;;6.72;0.80;;;23.40;99.90;;;;;;5032274;28;20036;-65
2022/01/24 06:52:33;;;;;;;4.72;0.90;;;23.60;99.90;;;;;;5033601;28;20383;-66
2022/01/24 06:55:00;;;;;;;4.57;0.52;;;23.80;99.90;;;;;;5031635;28;20085;-65
2022/01/24 06:57:28;;;;;;;3.70;0.50;;;23.70;99.90;;;;;;5031819;28;20030;-65
2022/01/24 06:59:55;;;;;;;3.53;0.65;;;23.90;99.90;;;;;;5021287;28;20065;-66
2022/01/24 07:02:22;;;;;;;13.55;1.25;;;23.40;99.90;;;;;;5033278;28;20018;-66
2022/01/24 07:04:49;;;;;;;5.65;0.88;;;23.20;99.90;;;;;;5032248;28;20117;-66
2022/01/24 07:07:17;;;;;;;3.88;0.60;;;23.20;99.90;;;;;;5032348;28;20030;-66
2022/01/24 07:09:45;;;;;;;4.80;0.70;;;23.10;99.90;;;;;;5030999;28;20084;-66
2022/01/24 07:12:12;;;;;;;5.82;1.20;;;23.20;99.90;;;;;;5033375;28;20052;-66
2022/01/24 07:14:42;;;;;;;3.72;0.55;;;23.00;99.90;;;;;;5027246;28;20041;-66
2022/01/24 07:17:30;;;;;;;4.93;0.63;;;22.70;99.90;;;;;;5036407;28;20029;-66
2022/01/24 07:19:58;;;;;;;6.05;0.90;;;22.70;99.90;;;;;;5027147;28;20043;-66
2022/01/24 07:22:25;;;;;;;4.40;1.00;;;22.80;99.90;;;;;;5033139;28;20028;-66
2022/01/24 07:24:52;;;;;;;10.90;1.30;;;22.60;99.90;;;;;;5029372;28;20459;-66
2022/01/24 07:27:19;;;;;;;8.95;0.98;;;22.50;99.90;;;;;;5014063;28;20104;-66
2022/01/24 07:29:47;;;;;;;4.60;1.00;;;22.30;99.90;;;;;;5012779;28;20029;-66
2022/01/24 07:32:17;;;;;;;8.70;0.73;;;22.40;99.90;;;;;;5028751;28;20100;-66
2022/01/24 07:34:44;;;;;;;8.90;1.50;;;22.30;99.90;;;;;;5023066;28;20125;-66
2022/01/24 07:37:13;;;;;;;3.58;0.50;;;22.30;99.90;;;;;;5021828;28;20033;-66
2022/01/24 07:39:40;;;;;;;6.28;0.75;;;22.40;99.90;;;;;;5024976;28;20029;-67
2022/01/24 07:42:16;;;;;;;5.57;0.68;;;22.30;99.90;;;;;;5023940;28;20048;-66
2022/01/24 07:44:44;;;;;;;2.70;0.60;;;22.30;99.90;;;;;;5019573;28;20079;-66
2022/01/24 07:47:11;;;;;;;7.15;0.93;;;22.40;99.90;;;;;;5031517;28;20076;-67
2022/01/24 07:49:39;;;;;;;7.70;1.48;;;22.30;99.90;;;;;;5030464;28;20117;-66
2022/01/24 07:52:06;;;;;;;5.13;0.90;;;22.20;99.90;;;;;;5031777;28;20026;-66
2022/01/24 07:54:34;;;;;;;9.32;1.05;;;22.20;99.90;;;;;;5030625;28;20029;-66
2022/01/24 07:57:01;;;;;;;5.30;0.60;;;22.10;99.90;;;;;;5032171;28;20105;-66
2022/01/24 07:59:28;;;;;;;6.00;1.02;;;22.10;99.90;;;;;;5031167;28;20029;-66
2022/01/24 08:01:55;;;;;;;5.47;0.93;;;22.10;99.90;;;;;;5023225;28;20095;-66
2022/01/24 08:04:23;;;;;;;8.40;1.00;;;22.10;99.90;;;;;;5016008;28;20028;-66
2022/01/24 08:06:50;;;;;;;5.00;0.90;;;22.10;99.90;;;;;;5032289;28;20029;-66
2022/01/24 08:09:17;;;;;;;4.88;0.80;;;22.20;99.90;;;;;;5031029;28;20405;-66
2022/01/24 08:11:45;;;;;;;4.32;0.60;;;22.20;99.90;;;;;;5032614;28;20039;-66
2022/01/24 08:14:12;;;;;;;3.63;0.88;;;22.10;99.90;;;;;;5025843;28;20021;-66
2022/01/24 08:16:40;;;;;;;7.72;0.85;;;22.00;99.90;;;;;;5032267;28;20436;-66
2022/01/24 08:19:07;;;;;;;9.13;1.75;;;22.00;99.90;;;;;;5030826;28;20022;-66
2022/01/24 08:21:34;;;;;;;14.77;1.48;;;21.90;99.90;;;;;;5036328;28;20025;-66
2022/01/24 08:24:02;;;;;;;4.88;0.60;;;21.90;99.90;;;;;;5030472;28;20079;-66
2022/01/24 08:26:29;;;;;;;8.40;1.00;;;21.90;99.90;;;;;;5019787;28;20026;-66
2022/01/24 08:28:57;;;;;;;7.20;0.90;;;21.80;99.90;;;;;;5017793;28;20044;-66
2022/01/24 08:31:24;;;;;;;8.10;1.50;;;21.80;99.90;;;;;;5033603;28;20029;-66
2022/01/24 08:33:51;;;;;;;6.80;0.98;;;21.80;99.90;;;;;;5034615;28;20423;-66
2022/01/24 08:36:19;;;;;;;6.95;0.93;;;21.80;99.90;;;;;;5036023;28;20025;-66
2022/01/24 08:38:49;;;;;;;8.85;1.58;;;21.80;99.90;;;;;;5035366;28;20029;-66
2022/01/24 08:41:26;;;;;;;8.95;0.95;;;21.80;99.90;;;;;;5032966;28;20607;-66
2022/01/24 08:44:09;;;;;;;9.50;0.98;;;21.80;99.90;;;;;;5016235;28;20463;-66
2022/01/24 08:46:37;;;;;;;3.58;0.70;;;21.80;99.90;;;;;;5015988;28;20045;-66
2022/01/24 08:49:04;;;;;;;8.25;1.48;;;21.80;99.90;;;;;;5016857;28;20049;-66
2022/01/24 08:51:31;;;;;;;7.97;1.08;;;21.70;99.90;;;;;;5034372;28;20033;-66
2022/01/24 08:53:59;;;;;;;12.63;1.20;;;21.70;99.90;;;;;;5034495;28;20026;-66
2022/01/24 08:56:28;;;;;;;6.40;1.17;;;21.70;99.90;;;;;;5035758;28;20056;-66
2022/01/24 08:58:55;;;;;;;8.68;1.00;;;21.70;99.90;;;;;;5034606;28;20030;-66
2022/01/24 09:01:22;;;;;;;7.57;1.00;;;21.70;99.90;;;;;;5016157;28;20034;-66
2022/01/24 09:03:50;;;;;;;10.18;1.88;;;21.60;99.90;;;;;;5015633;28;20029;-66
2022/01/24 09:06:18;;;;;;;7.82;1.45;;;21.60;99.90;;;;;;5033739;28;20097;-66
2022/01/24 09:08:48;;;;;;;6.45;0.80;;;21.60;99.90;;;;;;5025673;28;20045;-66
2022/01/24 09:11:15;;;;;;;6.07;1.00;;;21.60;99.90;;;;;;5033672;28;20046;-66
2022/01/24 09:13:43;;;;;;;7.85;1.05;;;21.60;99.90;;;;;;5021794;28;20343;-66
2022/01/24 09:16:10;;;;;;;6.57;1.10;;;21.60;99.90;;;;;;5033232;28;20030;-66
2022/01/24 09:18:37;;;;;;;4.95;0.75;;;21.50;99.90;;;;;;5029865;28;20026;-66
2022/01/24 09:21:05;;;;;;;7.47;0.90;;;21.50;99.90;;;;;;5034828;28;20038;-66
2022/01/24 09:23:32;;;;;;;6.55;1.08;;;21.50;99.90;;;;;;5021065;28;20076;-66
2022/01/24 09:25:59;;;;;;;6.65;0.80;;;21.40;99.90;;;;;;5032370;28;20459;-66
2022/01/24 09:28:27;;;;;;;5.55;1.30;;;21.50;99.90;;;;;;5035163;28;20050;-66
2022/01/24 09:30:54;;;;;;;5.65;1.25;;;21.50;99.90;;;;;;5033116;28;20028;-66
2022/01/24 09:33:22;;;;;;;3.25;0.88;;;21.50;99.90;;;;;;5034879;28;20373;-66
2022/01/24 09:35:49;;;;;;;8.55;1.00;;;21.50;99.90;;;;;;5033632;28;20105;-66
2022/01/24 09:38:16;;;;;;;8.02;1.25;;;21.40;99.90;;;;;;5033891;28;20072;-66
2022/01/24 09:40:44;;;;;;;8.43;1.13;;;21.40;99.90;;;;;;5021058;28;20065;-66
2022/01/24 09:43:11;;;;;;;7.60;0.90;;;21.40;99.90;;;;;;5031990;28;20120;-66
2022/01/24 09:45:39;;;;;;;7.15;1.65;;;21.40;99.90;;;;;;5032606;28;20037;-66
2022/01/24 09:48:08;;;;;;;8.10;1.27;;;21.30;99.90;;;;;;5014989;28;20057;-66
2022/01/24 09:50:36;;;;;;;6.28;1.42;;;21.40;99.90;;;;;;5028836;28;20033;-66
2022/01/24 09:53:04;;;;;;;9.23;1.00;;;21.30;99.90;;;;;;5034466;28;20505;-66
2022/01/24 09:55:31;;;;;;;8.90;1.10;;;21.30;99.90;;;;;;5033280;28;20542;-66
2022/01/24 09:57:59;;;;;;;7.38;1.10;;;21.30;99.90;;;;;;5034598;28;20060;-66
2022/01/24 10:00:27;;;;;;;7.50;1.15;;;21.30;99.90;;;;;;5032993;28;20390;-66
2022/01/24 10:02:56;;;;;;;9.45;1.63;;;21.30;99.90;;;;;;5034365;28;20385;-66
2022/01/24 10:05:30;;;;;;;15.02;1.52;;;21.30;99.90;;;;;;5032768;28;20032;-66
2022/01/24 10:08:01;;;;;;;7.57;1.30;;;21.30;99.90;;;;;;5014693;28;20346;-66
2022/01/24 10:10:33;;;;;;;8.80;1.42;;;21.30;99.90;;;;;;5027399;28;20425;-66
2022/01/24 10:16:33;;;;;;;10.25;1.30;;;21.30;99.90;;;;;;5032127;28;20036;-66
2022/01/24 10:19:20;;;;;;;7.63;1.27;;;21.30;99.90;;;;;;5015162;28;20518;-66
2022/01/24 10:21:50;;;;;;;8.40;1.35;;;21.30;99.90;;;;;;5034052;28;20096;-66
2022/01/24 10:24:43;;;;;;;15.05;1.90;;;21.30;99.90;;;;;;5033233;28;20045;-66
2022/01/24 10:27:19;;;;;;;9.43;1.30;;;21.30;99.90;;;;;;5034267;28;20116;-66
2022/01/24 10:29:55;;;;;;;5.18;1.27;;;21.30;99.90;;;;;;5032564;28;20029;-66
2022/01/24 10:32:28;;;;;;;12.50;1.30;;;21.30;99.90;;;;;;5033972;28;20025;-66
2022/01/24 10:34:59;;;;;;;7.90;1.10;;;21.30;99.90;;;;;;5032421;28;20033;-66
2022/01/24 10:37:26;;;;;;;10.80;1.40;;;21.30;99.90;;;;;;5033887;28;20057;-66
2022/01/24 10:40:09;;;;;;;6.03;1.27;;;21.30;99.90;;;;;;5032400;28;20037;-66
2022/01/24 10:42:52;;;;;;;9.00;1.63;;;21.30;99.90;;;;;;5020781;28;20025;-66
2022/01/24 10:45:25;;;;;;;9.30;1.42;;;21.30;99.90;;;;;;5025437;28;20033;-66
2022/01/24 10:47:55;;;;;;;9.05;1.20;;;21.30;99.90;;;;;;5031985;28;20053;-66
2022/01/24 10:50:30;;;;;;;7.63;1.40;;;21.30;99.90;;;;;;5028462;28;20022;-66
2022/01/24 10:53:09;;;;;;;6.68;1.25;;;21.30;99.90;;;;;;5013718;28;20104;-66
2022/01/24 10:55:36;;;;;;;11.18;1.60;;;21.40;99.90;;;;;;5027895;28;20060;-66
2022/01/24 10:58:18;;;;;;;10.70;1.20;;;21.40;99.90;;;;;;5033610;28;20378;-66
2022/01/24 11:00:47;;;;;;;7.63;1.17;;;21.30;99.90;;;;;;5032198;28;20489;-66
2022/01/24 11:03:19;;;;;;;6.68;0.70;;;21.40;99.90;;;;;;5033291;28;20426;-66
2022/01/24 11:05:47;;;;;;;9.80;1.13;;;21.40;99.90;;;;;;5031469;28;20032;-66
2022/01/24 11:08:17;;;;;;;6.90;1.30;;;21.40;99.90;;;;;;5024941;28;20040;-66
2022/01/24 11:10:50;;;;;;;7.80;1.58;;;21.40;99.90;;;;;;5029444;28;20021;-65
2022/01/24 11:13:19;;;;;;;10.65;1.77;;;21.40;99.90;;;;;;5022563;28;20057;-65
2022/01/24 11:15:58;;;;;;;9.10;2.28;;;21.40;99.90;;;;;;5029544;28;20052;-65
2022/01/24 11:18:26;;;;;;;10.70;1.75;;;21.30;99.90;;;;;;5032065;28;20029;-65
2022/01/24 11:21:02;;;;;;;11.88;1.20;;;21.40;99.90;;;;;;5030360;28;20040;-65
2022/01/24 11:23:30;;;;;;;9.45;1.30;;;21.40;99.90;;;;;;5013503;28;20030;-65
2022/01/24 11:25:57;;;;;;;8.25;1.48;;;21.40;99.90;;;;;;5030320;28;20091;-65
2022/01/24 11:28:26;;;;;;;6.63;1.13;;;21.40;99.90;;;;;;5031979;28;20033;-65
2022/01/24 11:31:17;;;;;;;12.43;1.75;;;21.40;99.90;;;;;;5030622;28;20120;-65
2022/01/24 11:33:54;;;;;;;10.73;1.80;;;21.40;99.90;;;;;;5032670;28;20037;-65
2022/01/24 11:36:39;;;;;;;15.75;1.98;;;21.40;99.90;;;;;;5013193;28;20030;-66
2022/01/24 11:39:08;;;;;;;7.50;1.42;;;21.40;99.90;;;;;;5014344;28;20084;-66
2022/01/24 11:41:39;;;;;;;8.35;1.15;;;21.40;99.90;;;;;;5028369;28;20378;-66
2022/01/24 11:44:15;;;;;;;7.45;1.13;;;21.40;99.90;;;;;;5022766;28;20033;-66
2022/01/24 11:46:49;;;;;;;7.40;1.70;;;21.30;99.90;;;;;;5025558;28;20025;-66
2022/01/24 11:49:21;;;;;;;7.28;0.93;;;21.30;99.90;;;;;;5016019;28;20359;-66
2022/01/24 11:51:52;;;;;;;9.10;1.55;;;21.30;99.90;;;;;;5031600;28;20071;-66
2022/01/24 11:54:50;;;;;;;11.63;1.75;;;21.30;99.90;;;;;;5029512;28;20539;-66
2022/01/24 11:58:00;;;;;;;9.07;1.60;;;21.30;99.90;;;;;;5018804;28;20445;-66
2022/01/24 12:00:31;;;;;;;12.55;2.08;;;21.30;99.90;;;;;;5005881;28;20046;-65
2022/01/24 12:03:04;;;;;;;11.65;1.60;;;21.30;99.90;;;;;;5009860;28;20034;-66
2022/01/24 12:05:45;;;;;;;8.13;2.33;;;21.30;99.90;;;;;;5012480;28;20077;-66
2022/01/24 12:08:29;;;;;;;8.25;0.95;;;21.30;99.90;;;;;;5012568;28;20049;-66
2022/01/24 12:11:10;;;;;;;;;;;21.40;99.90;;;;;;5028831;28;20109;-66
2022/01/24 12:13:51;;;;;;;8.23;0.90;;;21.40;99.90;;;;;;5032361;28;20377;-66
2022/01/24 12:16:20;;;;;;;10.73;1.25;;;21.50;99.90;;;;;;5030732;28;20030;-65
2022/01/24 12:18:50;;;;;;;8.05;2.45;;;21.40;99.90;;;;;;5031513;28;20025;-65
2022/01/24 12:21:27;;;;;;;11.98;1.35;;;21.50;99.90;;;;;;5030613;28;20421;-66
2022/01/24 12:23:57;;;;;;;11.05;1.50;;;21.50;99.90;;;;;;5025702;28;20026;-65
2022/01/24 12:26:30;;;;;;;6.68;0.88;;;21.60;99.90;;;;;;5012319;28;20121;-65
2022/01/24 12:29:05;;;;;;;4.18;0.52;;;21.60;99.90;;;;;;5012598;28;20565;-65
2022/01/24 12:31:32;;;;;;;17.20;2.05;;;21.60;99.90;;;;;;5026065;28;20021;-65
2022/01/24 12:34:04;;;;;;;9.70;1.15;;;21.60;99.90;;;;;;5013242;28;20022;-65
2022/01/24 12:36:50;;;;;;;11.18;1.10;;;21.60;99.90;;;;;;5031771;28;20025;-65
2022/01/24 12:39:33;;;;;;;8.80;1.10;;;21.60;99.90;;;;;;5030668;28;20028;-65
2022/01/24 12:42:10;;;;;;;7.93;0.70;;;21.60;99.90;;;;;;5024123;28;20478;-65
2022/01/24 12:47:10;;;;;;;6.95;0.90;;;21.60;99.90;;;;;;5031720;28;20051;-65
2022/01/24 12:49:38;;;;;;;11.70;1.25;;;21.60;99.90;;;;;;5030741;28;20033;-65
2022/01/24 12:52:09;;;;;;;7.68;1.23;;;21.60;99.90;;;;;;5031615;28;20024;-65
2022/01/24 12:54:39;;;;;;;11.85;1.50;;;21.60;99.90;;;;;;5028999;28;20076;-65
2022/01/24 12:57:11;;;;;;;9.63;1.00;;;21.60;99.90;;;;;;5026288;28;20064;-66
2022/01/24 12:59:39;;;;;;;8.23;1.65;;;21.60;99.90;;;;;;5019598;28;20066;-66
2022/01/24 13:02:09;;;;;;;8.32;1.10;;;21.60;99.90;;;;;;5021859;28;20541;-66
2022/01/24 13:04:40;;;;;;;5.82;1.25;;;21.60;99.90;;;;;;5029904;28;20417;-66
2022/01/24 13:07:09;;;;;;;9.30;1.60;;;21.60;99.90;;;;;;5032867;28;20501;-66
2022/01/24 13:09:37;;;;;;;15.13;1.80;;;21.60;99.90;;;;;;5034370;28;20017;-66
2022/01/24 13:12:09;;;;;;;12.05;1.73;;;21.60;99.90;;;;;;5035849;28;20034;-66
2022/01/24 13:14:52;;;;;;;8.20;1.23;;;21.60;99.90;;;;;;5034223;28;20029;-66
2022/01/24 13:20:57;;;;;;;9.60;1.15;;;21.60;99.90;;;;;;5033950;28;20095;-65
2022/01/24 13:23:13;;;;;;;7.25;1.20;;;21.60;99.90;;;;;;5035381;28;20454;-66
2022/01/24 13:25:41;;;;;;;7.28;0.95;;;21.60;99.90;;;;;;5021268;28;20421;-66
2022/01/24 13:28:13;;;;;;;13.77;1.30;;;21.60;99.90;;;;;;5015025;28;20063;-66
2022/01/24 13:30:47;;;;;;;10.50;1.80;;;21.60;99.90;;;;;;5021309;28;20022;-66
2022/01/24 13:33:19;;;;;;;7.78;1.20;;;21.60;99.90;;;;;;5015703;28;20429;-66
2022/01/24 13:35:52;;;;;;;11.05;1.33;;;21.60;99.90;;;;;;5030210;28;20039;-65
2022/01/24 13:38:24;;;;;;;8.77;1.50;;;21.60;99.90;;;;;;5035002;28;20025;-66
2022/01/24 13:41:01;;;;;;;8.77;1.55;;;21.60;99.90;;;;;;5033524;28;20033;-66
2022/01/24 13:43:35;;;;;;;7.50;1.25;;;21.60;99.90;;;;;;5016085;28;20026;-66
2022/01/24 13:46:05;;;;;;;8.90;0.75;;;21.60;99.90;;;;;;5031262;28;20508;-66
2022/01/24 13:48:58;;;;;;;6.47;0.85;;;21.60;99.90;;;;;;5034726;28;20049;-66
2022/01/24 13:51:35;;;;;;;6.80;0.80;;;21.60;99.90;;;;;;5017464;28;20030;-66
2022/01/24 13:54:07;;;;;;;6.20;1.38;;;21.60;99.90;;;;;;5020495;28;20491;-66
2022/01/24 13:56:41;;;;;;;11.02;1.05;;;21.60;99.90;;;;;;5034772;28;20064;-66
2022/01/24 13:59:10;;;;;;;;;;;21.50;99.90;;;;;;5031962;28;20025;-65
2022/01/24 14:01:57;;;;;;;8.77;1.38;;;21.50;99.90;;;;;;5028240;28;19918;-66
2022/01/24 14:04:36;;;;;;;6.70;1.02;;;21.50;99.90;;;;;;5024504;28;20032;-66
2022/01/24 14:07:11;;;;;;;6.25;0.70;;;21.50;99.90;;;;;;5033578;28;20034;-66
2022/01/24 14:09:42;;;;;;;7.00;0.80;;;21.50;99.90;;;;;;5026879;28;20055;-66
2022/01/24 14:12:16;;;;;;;9.23;1.05;;;21.50;99.90;;;;;;5030016;28;20025;-65
2022/01/24 14:14:50;;;;;;;9.13;1.58;;;21.50;99.90;;;;;;5024897;28;20017;-66
2022/01/24 14:19:53;;;;;;;9.35;1.13;;;21.50;99.90;;;;;;5015052;28;19921;-65
2022/01/24 14:22:21;;;;;;;7.80;0.80;;;21.50;99.90;;;;;;5014534;28;20537;-66
2022/01/24 14:24:55;;;;;;;8.73;0.95;;;21.50;99.90;;;;;;5021920;28;20025;-65
2022/01/24 14:27:42;;;;;;;7.65;1.10;;;21.50;99.90;;;;;;5033522;28;20021;-66
2022/01/24 14:30:15;;;;;;;9.43;1.10;;;21.50;99.90;;;;;;5032608;28;20029;-66
2022/01/24 14:32:58;;;;;;;6.38;0.80;;;21.50;99.90;;;;;;5034167;28;20096;-66
2022/01/24 14:35:26;;;;;;;13.23;1.38;;;21.40;99.90;;;;;;5032382;28;20037;-66
2022/01/24 14:37:56;;;;;;;7.78;1.50;;;21.40;99.90;;;;;;5033933;28;20029;-65
2022/01/24 14:40:45;;;;;;;8.77;1.05;;;21.50;99.90;;;;;;5032509;28;20035;-65